• Join FlightAware (Why Join?)
  • Login
  • US Flag 
03:57PM EDT


 

Airport Tracker/Info


-or-


 

Live Flight TrackerFlight Track Log ✈ OPT429 ✈ 10-Jul-2014 ✈ KIND - KDFW

Flight Track Log - Related Links

Times and Time Zones

All times are in EDT time to prevent confusion due to time zone crossing. See the OPT429 flight status page for this flight to view local times or setup timezone preferences in your user account.

Time Position Orientation Groundspeed Altitude Reporting Facility
EDT Latitude Longitude Course Direction KTS MPH feet Rate Location/Type
04:52PM 39.7167 -86.3000 38° Northeast 158 182 1,500  Level Indianapolis TRACON
04:53PM 39.7500 -86.2667 33° Northeast 205 236 4,000 2,340 Climbing Indianapolis TRACON
04:54PM 39.7925 -86.3069 324° Northwest 258 297 5,900 2,220 Climbing Indianapolis Center
04:55PM 39.7453 -86.3981 236° Southwest 272 313 8,700 2,580 Climbing Indianapolis Center
04:57PM 39.6661 -86.5658 232° Southwest 271 312 14,100 2,340 Climbing Indianapolis Center
04:58PM 39.6386 -86.6672 251° West 288 331 16,100 1,860 Climbing Indianapolis Center
04:59PM 39.6108 -86.7753 252° West 308 354 18,000 2,100 Climbing Indianapolis Center
05:00PM 39.5764 -86.9103 252° West 325 374 20,500 2,160 Climbing Indianapolis Center
05:01PM 39.5550 -87.0294 257° West 334 384 22,500 1,920 Climbing Indianapolis Center
05:03PM 39.5122 -87.2606 257° West 345 397 26,300 1,980 Climbing Kansas City Center
05:04PM 39.4889 -87.3861 256° West 353 406 28,400 1,980 Climbing Kansas City Center
05:05PM 39.4650 -87.5128 256° West 359 413 30,400 1,920 Climbing Kansas City Center
05:06PM 39.4025 -87.6600 241° Southwest 365 420 32,800 1,680 Climbing Indianapolis Center
05:08PM 39.2875 -87.8692 226° Southwest 371 427 35,600 1,380 Climbing Kansas City Center
05:10PM 39.1578 -88.1047 231° Southwest 369 425 38,700 1,320 Climbing Indianapolis Center
05:11PM 39.1111 -88.1892 235° Southwest 368 423 39,800 1,260 Climbing Kansas City Center
05:12PM 39.0556 -88.2864 234° Southwest 357 411 41,100 780 Climbing Kansas City Center
05:13PM 39.0039 -88.3792 234° Southwest 339 390 41,500 300 Climbing Kansas City Center
05:14PM 38.9394 -88.4942 234° Southwest 334 384 41,800 240 Climbing Kansas City Center
05:15PM 38.8836 -88.5944 234° Southwest 337 388 42,100 300 Climbing Kansas City Center
05:16PM 38.8267 -88.6933 234° Southwest 348 400 42,500 360 Climbing Kansas City Center
05:17PM 38.7703 -88.7931 234° Southwest 348 400 42,900 120 Climbing Kansas City Center
05:20PM 38.6431 -89.0172 234° Southwest 363 418 43,000  Climbing Memphis Center
05:21PM 38.5683 -89.1478 234° Southwest 374 430 43,000  Level Memphis Center
05:22PM 38.5008 -89.2667 234° Southwest 384 442 43,000  Level Indianapolis Center
05:23PM 38.4344 -89.3817 234° Southwest 396 456 43,000  Level Indianapolis Center
05:24PM 38.3803 -89.4717 233° Southwest 401 461 43,000  Level Kansas City Center
05:26PM 38.2331 -89.7250 234° Southwest 413 475 43,000  Level Memphis Center
05:27PM 38.1492 -89.8700 234° Southwest 420 483 43,000  Level Memphis Center
05:29PM 38.0078 -90.1117 233° Southwest 426 490 43,000  Level Memphis Center
05:30PM 37.9356 -90.2319 233° Southwest 426 490 43,000  Level Memphis Center
05:31PM 37.8697 -90.3406 233° Southwest 430 495 43,000  Level Kansas City Center
05:32PM 37.7981 -90.4592 233° Southwest 428 493 43,000  Level Kansas City Center
05:33PM 37.7272 -90.5781 233° Southwest 426 490 43,000  Level Kansas City Center
05:34PM 37.6408 -90.7203 233° Southwest 426 490 43,000  Level Kansas City Center
05:36PM 37.4911 -90.9719 233° Southwest 425 489 43,000  Level Memphis Center
05:37PM 37.4178 -91.0917 232° Southwest 425 489 43,000  Level Memphis Center
05:38PM 37.3439 -91.2133 233° Southwest 426 490 43,000  Level Kansas City Center
05:39PM 37.2725 -91.3306 233° Southwest 426 490 43,000  Level Kansas City Center
05:40PM 37.2042 -91.4431 233° Southwest 410 472 43,000  Level Kansas City Center
05:41PM 37.1344 -91.5553 232° Southwest 409 471 43,000  Level Kansas City Center
05:42PM 37.0669 -91.6639 232° Southwest 399 459 43,000  Level Kansas City Center
05:43PM 37.0006 -91.7733 233° Southwest 395 455 43,000  Level Kansas City Center
05:44PM 36.9306 -91.8878 233° Southwest 403 464 43,000  Level Kansas City Center
05:45PM 36.8475 -92.0203 232° Southwest 403 464 43,000  Level Kansas City Center
05:46PM 36.7786 -92.1297 232° Southwest 403 464 43,000  Level Kansas City Center
05:47PM 36.7100 -92.2400 232° Southwest 402 463 43,000  Level Kansas City Center
05:49PM 36.6267 -92.3656 230° Southwest 400 460 43,000  Level Memphis Center
05:50PM 36.5572 -92.4756 232° Southwest 400 460 43,000  Level Memphis Center
05:51PM 36.4872 -92.5842 231° Southwest 400 460 43,000  Level Memphis Center
05:53PM 36.3544 -92.7958 232° Southwest 402 463 43,000  Level Kansas City Center
05:54PM 36.2847 -92.9036 231° Southwest 403 464 43,000  Level Kansas City Center
05:55PM 36.2142 -93.0117 231° Southwest 403 464 43,000  Level Kansas City Center
05:56PM 36.1444 -93.1225 232° Southwest 404 465 43,000  Level Kansas City Center
05:57PM 36.0583 -93.2547 231° Southwest 409 471 43,000  Level Kansas City Center
05:58PM 35.9747 -93.3850 232° Southwest 407 468 43,000  Level Memphis Center
05:59PM 35.9044 -93.4933 231° Southwest 407 468 43,000  Level Memphis Center
06:01PM 35.7628 -93.7094 231° Southwest 408 470 43,000  Level Fort Worth Center
06:02PM 35.6911 -93.8161 230° Southwest 407 468 43,000  Level Fort Worth Center
06:03PM 35.6097 -93.9208 226° Southwest 414 476 43,000  Level Fort Worth Center
06:04PM 35.5261 -94.0169 223° Southwest 413 475 43,000  Level Fort Worth Center
06:05PM 35.4281 -94.1300 223° Southwest 413 475 43,000  Level Memphis Center
06:06PM 35.3403 -94.2300 223° Southwest 413 475 43,000  Level Memphis Center
06:07PM 35.2561 -94.3258 223° Southwest 412 474 43,000  Level Memphis Center
06:08PM 35.1775 -94.4161 223° Southwest 412 474 43,000  Level Memphis Center
06:09PM 35.0775 -94.5289 223° Southwest 412 474 43,000  Level Memphis Center
06:10PM 34.9936 -94.6225 222° Southwest 412 474 43,000  Level Memphis Center
06:11PM 34.9050 -94.7258 224° Southwest 411 473 43,000  Level Memphis Center
06:12PM 34.8319 -94.8075 223° Southwest 409 471 43,000  Level Fort Worth Center
06:13PM 34.7486 -94.9022 223° Southwest 408 470 43,000 -180 Level Fort Worth Center
06:14PM 34.6631 -94.9975 223° Southwest 415 478 42,700 -480 Descending Fort Worth Center
06:15PM 34.5761 -95.0953 223° Southwest 424 488 42,000 -840 Descending Fort Worth Center
06:16PM 34.4886 -95.1931 223° Southwest 426 490 41,000 -1,200 Descending Fort Worth Center
06:17PM 34.3842 -95.3089 222° Southwest 426 490 39,600 -1,320 Descending Fort Worth Center
06:19PM 34.2953 -95.4078 223° Southwest 432 497 38,300 -1,380 Descending Fort Worth Center
06:21PM 34.1103 -95.6086 222° Southwest 419 482 35,400 -1,920 Descending Fort Worth Center
06:22PM 34.0294 -95.7000 223° Southwest 419 482 32,500 -2,760 Descending Fort Worth Center
06:23PM 33.9486 -95.7875 222° Southwest 395 455 29,700 -2,700 Descending Fort Worth Center
06:24PM 33.8706 -95.8717 222° Southwest 380 437 27,000 -3,000 Descending Fort Worth Center
06:25PM 33.7761 -95.9764 223° Southwest 382 440 23,500 -3,000 Descending Fort Worth Center
06:27PM 33.6097 -96.1550 222° Southwest 386 444 17,700 -2,700 Descending Fort Worth Center
06:28PM 33.5314 -96.2386 222° Southwest 381 438 15,200 -2,400 Descending Fort Worth Center
06:29PM 33.4558 -96.3317 226° Southwest 363 418 12,800 -1,560 Descending Fort Worth Center
06:31PM 33.3297 -96.4822 225° Southwest 299 344 10,500 -1,140 Descending Fort Worth Center
06:32PM 33.2817 -96.5464 228° Southwest 259 298 9,400 -1,140 Descending Fort Worth Center
06:33PM 33.2400 -96.6286 239° Southwest 270 311 8,200 -1,200 Descending Fort Worth Center
06:34PM 33.1994 -96.7047 238° Southwest 273 314 7,000 -1,080 Descending Fort Worth Center
06:36PM 33.1269 -96.8444 238° Southwest 240 276 5,000 -840 Descending Fort Worth Center
06:37PM 33.0911 -96.9161 239° Southwest 250 288 4,400 -840 Descending Fort Worth Center
06:38PM 33.0461 -96.9789 229° Southwest 232 267 3,300 -1,020 Descending Fort Worth Center
06:39PM 32.9922 -97.0083 205° Southwest 214 246 2,300 -900 Descending Fort Worth Center
06:40PM 32.9378 -97.0103 182° South 180 207 1,500 -780 Descending Fort Worth Center
06:41PM 32.9053 -97.0103 180° South 121 139 700 -780 Descending Fort Worth Center
06:43PM 32.8833 -97.0333 232° Southwest  Level FlightAware Approximate
06:50PM 32.8968 -97.0380 232° Southwest  Level Estimated
06:51PM 32.8968 -97.0380 232° Southwest  Level Estimated
06:52PM 32.8968 -97.0380 232° Southwest  Level Estimated
06:53PM 32.8968 -97.0380 232° Southwest  Level Estimated
06:54PM 32.8968 -97.0380 232° Southwest  Level Estimated
06:55PM 32.8968 -97.0380 232° Southwest  Level Estimated
06:56PM 32.8968 -97.0380 232° Southwest  Level Estimated
06:57PM 32.8968 -97.0380 232° Southwest  Level Estimated